createdAt,value
2023-10-09T00:02:21.807Z,101800.30
2023-10-09T00:05:04.720Z,101793.08
2023-10-09T00:07:42.631Z,101790.16
2023-10-09T00:10:21.889Z,101790.42
2023-10-09T00:12:56.584Z,101786.95
2023-10-09T00:15:36.373Z,101789.79
2023-10-09T00:18:15.348Z,101787.12
2023-10-09T00:20:56.772Z,101786.23
2023-10-09T00:23:36.165Z,101781.64
2023-10-09T00:26:17.908Z,101773.21
2023-10-09T00:28:58.716Z,101767.02
2023-10-09T00:31:34.958Z,101771.83
2023-10-09T00:34:22.291Z,101770.69
2023-10-09T00:37:06.789Z,101754.05
2023-10-09T00:39:47.162Z,101751.60
2023-10-09T00:42:30.169Z,101745.13
2023-10-09T00:45:10.451Z,101734.69
2023-10-09T00:47:50.669Z,101728.10
2023-10-09T00:50:27.243Z,101736.72
2023-10-09T00:53:06.035Z,101745.98
2023-10-09T00:55:53.980Z,101747.39
2023-10-09T00:58:33.233Z,101743.11
2023-10-09T01:01:18.093Z,101742.69
2023-10-09T01:04:00.680Z,101739.66
2023-10-09T01:07:13.638Z,101728.35
2023-10-09T01:10:01.243Z,101722.90
2023-10-09T01:12:43.619Z,101726.94
2023-10-09T01:15:37.355Z,101725.90
2023-10-09T01:18:15.161Z,101724.39
2023-10-09T01:20:54.698Z,101718.59
2023-10-09T01:23:31.979Z,101716.63
2023-10-09T01:26:13.119Z,101723.33
2023-10-09T01:29:00.513Z,101723.70
2023-10-09T01:31:45.721Z,101719.33
2023-10-09T01:34:26.213Z,101713.16
2023-10-09T01:37:07.522Z,101704.67
2023-10-09T01:39:44.740Z,101704.91
2023-10-09T01:42:29.510Z,101704.91
2023-10-09T01:45:13.285Z,101709.55
2023-10-09T01:47:56.781Z,101707.88
2023-10-09T01:50:33.911Z,101712.45
2023-10-09T01:53:09.599Z,101707.23
2023-10-09T01:55:48.259Z,101707.55
2023-10-09T01:58:29.094Z,101711.25
2023-10-09T02:01:08.990Z,101711.62
2023-10-09T02:03:45.194Z,101715.91
2023-10-09T02:06:29.271Z,101715.69
2023-10-09T02:09:08.370Z,101708.17
2023-10-09T02:11:46.816Z,101710.02
2023-10-09T02:14:26.169Z,101707.34
2023-10-09T02:17:10.070Z,101708.53
2023-10-09T02:19:50.169Z,101706.17
2023-10-09T02:22:27.935Z,101704.44
2023-10-09T02:25:10.156Z,101704.72
2023-10-09T02:27:55.200Z,101710.60
2023-10-09T02:30:32.997Z,101701.30
2023-10-09T02:33:11.282Z,101699.64
2023-10-09T02:35:52.984Z,101694.73
2023-10-09T02:38:37.721Z,101682.81
2023-10-09T02:41:22.790Z,101672.78
2023-10-09T02:43:59.869Z,101678.48
2023-10-09T02:46:37.032Z,101680.39
2023-10-09T02:49:18.213Z,101673.30
2023-10-09T02:51:57.100Z,101671.48
2023-10-09T02:54:43.307Z,101661.10
2023-10-09T02:57:25.184Z,101657.52
2023-10-09T03:00:05.095Z,101649.70
2023-10-09T03:02:41.713Z,101643.48
2023-10-09T03:05:18.957Z,101640.98
2023-10-09T03:07:56.493Z,101633.79
2023-10-09T03:10:37.716Z,101629.33
2023-10-09T03:13:21.021Z,101623.36
2023-10-09T03:15:57.603Z,101611.98
2023-10-09T03:18:36.728Z,101611.83
2023-10-09T03:21:17.089Z,101613.34
2023-10-09T03:23:54.158Z,101611.81
2023-10-09T03:26:33.327Z,101616.52
2023-10-09T03:29:14.986Z,101615.55
2023-10-09T03:31:52.006Z,101608.90
2023-10-09T03:34:28.037Z,101611.57
2023-10-09T03:37:13.615Z,101601.68
2023-10-09T03:39:49.067Z,101601.92
2023-10-09T03:42:27.378Z,101595.40
2023-10-09T03:45:03.206Z,101589.27
2023-10-09T03:47:39.100Z,101582.59
2023-10-09T03:50:28.100Z,101580.96
2023-10-09T03:53:03.936Z,101572.05
2023-10-09T03:55:43.395Z,101557.20
2023-10-09T03:58:22.001Z,101552.45
2023-10-09T04:00:58.650Z,101550.33
2023-10-09T04:03:37.236Z,101529.93
2023-10-09T04:06:15.236Z,101527.36
2023-10-09T04:08:53.775Z,101528.58
2023-10-09T04:11:29.739Z,101530.76
2023-10-09T04:14:12.669Z,101524.30
2023-10-09T04:16:55.208Z,101530.17
2023-10-09T04:19:30.390Z,101534.91
2023-10-09T04:22:09.828Z,101531.67
2023-10-09T04:24:46.588Z,101525.42
2023-10-09T04:27:30.020Z,101528.35
2023-10-09T04:30:09.281Z,101524.20
2023-10-09T04:32:46.713Z,101521.50
2023-10-09T04:35:25.751Z,101520.06
2023-10-09T04:38:07.216Z,101518.83
2023-10-09T04:40:55.044Z,101518.02
2023-10-09T04:43:31.164Z,101515.54
2023-10-09T04:46:14.715Z,101510.69
2023-10-09T04:48:54.548Z,101505.39
2023-10-09T04:51:38.284Z,101501.77
2023-10-09T04:54:34.932Z,101503.94
2023-10-09T04:57:19.709Z,101502.88
2023-10-09T04:59:54.557Z,101493.96
2023-10-09T05:02:38.290Z,101492.21
2023-10-09T05:05:37.190Z,101495.77
2023-10-09T05:08:21.540Z,101494.94
2023-10-09T05:11:18.916Z,101495.80
2023-10-09T05:14:13.472Z,101494.85
2023-10-09T05:16:57.014Z,101496.63
2023-10-09T05:19:43.844Z,101494.92
2023-10-09T05:22:31.524Z,101490.64
2023-10-09T05:25:31.797Z,101480.23
2023-10-09T05:28:27.931Z,101484.09
2023-10-09T05:31:10.698Z,101484.17
2023-10-09T05:33:47.372Z,101481.86
2023-10-09T05:36:37.233Z,101488.16
2023-10-09T05:39:50.138Z,101491.42
2023-10-09T05:42:44.896Z,101494.84
2023-10-09T05:45:39.159Z,101500.93
2023-10-09T05:48:42.383Z,101499.81
2023-10-09T05:51:32.680Z,101498.27
2023-10-09T05:54:25.361Z,101488.67
2023-10-09T05:57:23.058Z,101487.70
2023-10-09T06:00:17.563Z,101481.55
2023-10-09T06:03:13.250Z,101488.05
2023-10-09T06:06:03.646Z,101483.14
2023-10-09T06:09:05.391Z,101480.43
2023-10-09T06:11:45.171Z,101471.59
2023-10-09T06:14:47.986Z,101470.97
2023-10-09T06:17:26.292Z,101472.16
2023-10-09T06:20:22.914Z,101466.96
2023-10-09T06:23:17.336Z,101463.77
2023-10-09T06:25:53.777Z,101455.44
2023-10-09T06:28:35.624Z,101457.65
2023-10-09T06:31:42.641Z,101460.65
2023-10-09T06:34:22.792Z,101458.96
2023-10-09T06:37:05.535Z,101450.39
2023-10-09T06:40:08.277Z,101450.92
2023-10-09T06:42:53.490Z,101455.66
2023-10-09T06:45:47.422Z,101450.25
2023-10-09T06:48:49.852Z,101452.52
2023-10-09T06:51:45.687Z,101447.50
2023-10-09T06:54:21.186Z,101441.69
2023-10-09T06:57:38.882Z,101440.96
2023-10-09T07:00:38.138Z,101435.51
2023-10-09T07:03:14.814Z,101433.04
2023-10-09T07:06:07.391Z,101438.06
2023-10-09T07:08:59.920Z,101439.69
2023-10-09T07:11:50.407Z,101442.48
2023-10-09T07:14:46.735Z,101449.02
2023-10-09T07:17:25.485Z,101443.41
2023-10-09T07:20:15.527Z,101445.23
2023-10-09T07:22:58.563Z,101440.75
2023-10-09T07:25:56.869Z,101439.11
2023-10-09T07:28:45.292Z,101440.38
2023-10-09T07:31:32.172Z,101445.17
2023-10-09T07:34:27.413Z,101441.06
2023-10-09T07:37:05.949Z,101431.64
2023-10-09T07:39:39.817Z,101435.45
2023-10-09T07:42:28.694Z,101440.30
2023-10-09T07:45:34.619Z,101445.73
2023-10-09T07:48:17.788Z,101445.57
2023-10-09T07:50:59.414Z,101465.23
2023-10-09T07:53:44.768Z,101479.68
2023-10-09T07:56:24.671Z,101477.91
2023-10-09T07:59:01.951Z,101482.73
2023-10-09T08:01:37.626Z,101491.19
2023-10-09T08:04:13.512Z,101485.15
2023-10-09T08:07:04.550Z,101476.91
2023-10-09T08:10:14.164Z,101471.96
2023-10-09T08:13:22.222Z,101465.80
2023-10-09T08:16:06.787Z,101467.66
2023-10-09T08:18:47.012Z,101466.50
2023-10-09T08:21:42.524Z,101461.98
2023-10-09T08:24:34.903Z,101464.05
2023-10-09T08:27:39.158Z,101467.29
2023-10-09T08:30:30.703Z,101460.02
2023-10-09T08:36:33.469Z,101447.55
2023-10-09T08:39:19.809Z,101434.06
2023-10-09T08:41:55.432Z,101427.75
2023-10-09T08:44:33.884Z,101427.17
2023-10-09T08:47:18.625Z,101422.70
2023-10-09T08:49:58.933Z,101426.30
2023-10-09T08:52:37.621Z,101428.27
2023-10-09T08:55:19.052Z,101423.19
2023-10-09T08:57:58.023Z,101419.07
2023-10-09T09:00:35.177Z,101417.80
2023-10-09T09:03:14.765Z,101414.37
2023-10-09T09:06:03.248Z,101414.15
2023-10-09T09:08:43.505Z,101412.77
2023-10-09T09:11:31.385Z,101404.55
2023-10-09T09:14:20.050Z,101399.11
2023-10-09T09:17:06.475Z,101401.70
2023-10-09T09:19:42.146Z,101399.52
2023-10-09T09:22:21.501Z,101392.40
2023-10-09T09:25:10.875Z,101395.30
2023-10-09T09:27:54.369Z,101391.92
2023-10-09T09:30:35.983Z,101389.17
2023-10-09T09:33:28.836Z,101385.77
2023-10-09T09:36:09.357Z,101382.14
2023-10-09T09:38:50.928Z,101380.40
2023-10-09T09:41:28.546Z,101374.92
2023-10-09T09:44:08.217Z,101378.98
2023-10-09T09:46:46.327Z,101380.94
2023-10-09T09:49:23.072Z,101385.39
2023-10-09T09:51:58.715Z,101384.59
2023-10-09T09:54:38.606Z,101380.79
2023-10-09T09:57:27.889Z,101380.84
2023-10-09T10:00:07.147Z,101373.77
2023-10-09T10:02:49.705Z,101373.45
2023-10-09T10:05:31.612Z,101368.65
2023-10-09T10:08:15.899Z,101371.05
2023-10-09T10:10:54.718Z,101369.95
2023-10-09T10:14:03.497Z,101363.79
2023-10-09T10:16:59.850Z,101366.27
2023-10-09T10:20:33.056Z,101375.19
2023-10-09T10:23:27.246Z,101368.59
2023-10-09T10:26:28.123Z,101365.73
2023-10-09T10:29:25.887Z,101357.86
2023-10-09T10:32:09.001Z,101354.24
2023-10-09T10:35:08.635Z,101348.88
2023-10-09T10:37:53.277Z,101343.53
2023-10-09T10:40:43.764Z,101344.40
2023-10-09T10:43:34.160Z,101345.08
2023-10-09T10:46:16.858Z,101340.27
2023-10-09T10:49:01.496Z,101340.42
2023-10-09T10:51:41.611Z,101335.02
2023-10-09T10:54:42.165Z,101331.07
2023-10-09T10:57:54.581Z,101330.48
2023-10-09T11:00:52.839Z,101327.29
2023-10-09T11:03:38.124Z,101322.98
2023-10-09T11:06:18.481Z,101315.70
2023-10-09T11:08:59.057Z,101308.96
2023-10-09T11:11:43.074Z,101313.23
2023-10-09T11:14:25.111Z,101314.31
2023-10-09T11:17:05.034Z,101311.22
2023-10-09T11:19:45.464Z,101305.65
2023-10-09T11:22:31.933Z,101307.20
2023-10-09T11:25:14.678Z,101306.59
2023-10-09T11:27:56.972Z,101297.61
2023-10-09T11:30:40.643Z,101293.57
2023-10-09T11:33:18.054Z,101294.49
2023-10-09T11:36:03.101Z,101292.35
2023-10-09T11:38:49.096Z,101288.27
2023-10-09T11:41:26.386Z,101287.94
2023-10-09T11:44:06.639Z,101288.08
2023-10-09T11:46:50.670Z,101287.48
2023-10-09T11:49:36.642Z,101288.77
2023-10-09T11:52:26.159Z,101289.87
2023-10-09T11:55:02.501Z,101292.20
2023-10-09T11:57:37.717Z,101292.58
2023-10-09T12:00:29.932Z,101288.45
2023-10-09T12:03:08.700Z,101291.84
2023-10-09T12:05:46.391Z,101287.75
2023-10-09T12:08:24.672Z,101291.27
2023-10-09T12:11:08.481Z,101280.37
2023-10-09T12:13:45.750Z,101274.61
2023-10-09T12:16:30.497Z,101270.05
2023-10-09T12:19:11.466Z,101265.06
2023-10-09T12:21:48.260Z,101263.95
2023-10-09T12:24:26.174Z,101261.58
2023-10-09T12:27:11.742Z,101253.40
2023-10-09T12:29:50.373Z,101250.89
2023-10-09T12:32:27.909Z,101247.52
2023-10-09T12:35:03.464Z,101236.41
2023-10-09T12:37:39.411Z,101232.17
2023-10-09T12:40:31.043Z,101224.34
2023-10-09T12:43:19.319Z,101218.45
2023-10-09T12:45:59.196Z,101208.64
2023-10-09T12:48:37.533Z,101204.98
2023-10-09T12:51:18.610Z,101197.70
2023-10-09T12:53:59.787Z,101194.37
2023-10-09T12:56:41.417Z,101192.58
2023-10-09T12:59:18.919Z,101195.94
2023-10-09T13:01:59.498Z,101196.17
2023-10-09T13:04:41.797Z,101193.48
2023-10-09T13:07:23.571Z,101193.95
2023-10-09T13:10:19.959Z,101191.04
2023-10-09T13:12:59.217Z,101184.13
2023-10-09T13:15:44.705Z,101186.42
2023-10-09T13:18:18.831Z,101182.72
2023-10-09T13:20:56.418Z,101177.29
2023-10-09T13:23:40.002Z,101173.73
2023-10-09T13:26:33.184Z,101171.41
2023-10-09T13:29:11.581Z,101169.89
2023-10-09T13:31:49.522Z,101174.52
2023-10-09T13:34:30.137Z,101175.62
2023-10-09T13:37:13.818Z,101170.15
2023-10-09T13:39:55.615Z,101161.55
2023-10-09T13:42:31.063Z,101163.92
2023-10-09T13:45:17.140Z,101167.45
2023-10-09T13:47:52.157Z,101172.55
2023-10-09T13:50:34.486Z,101170.87
2023-10-09T13:53:14.505Z,101170.50
2023-10-09T13:55:51.753Z,101174.45
2023-10-09T13:58:28.770Z,101175.77
2023-10-09T14:01:12.392Z,101172.81
2023-10-09T14:03:53.343Z,101177.62
2023-10-09T14:06:36.874Z,101171.33
2023-10-09T14:09:29.860Z,101175.81
2023-10-09T14:12:12.498Z,101180.42
2023-10-09T14:14:50.860Z,101179.16
2023-10-09T14:17:30.204Z,101182.52
2023-10-09T14:20:21.081Z,101179.83
2023-10-09T14:23:08.777Z,101184.61
2023-10-09T14:25:46.039Z,101183.64
2023-10-09T14:28:32.439Z,101183.35
2023-10-09T14:31:13.319Z,101189.56
2023-10-09T14:33:53.335Z,101186.46
2023-10-09T14:36:35.672Z,101179.05
2023-10-09T14:39:14.614Z,101185.31
2023-10-09T14:41:49.421Z,101186.31
2023-10-09T14:44:25.907Z,101184.70
2023-10-09T14:47:06.780Z,101188.48
2023-10-09T14:49:51.097Z,101197.80
2023-10-09T14:52:29.666Z,101196.01
2023-10-09T14:55:06.697Z,101196.30
2023-10-09T14:57:43.969Z,101192.37
2023-10-09T15:00:25.119Z,101187.77
2023-10-09T15:03:01.582Z,101195.23
2023-10-09T15:05:45.512Z,101211.71
2023-10-09T15:08:19.765Z,101212.16
2023-10-09T15:10:58.926Z,101216.70
2023-10-09T15:13:35.122Z,101215.50
2023-10-09T15:16:12.695Z,101210.94
2023-10-09T15:18:52.192Z,101207.76
2023-10-09T15:21:28.733Z,101200.50
2023-10-09T15:24:07.160Z,101194.55
2023-10-09T15:26:42.508Z,101190.17
2023-10-09T15:29:21.124Z,101183.77
2023-10-09T15:32:06.156Z,101188.93
2023-10-09T15:34:42.907Z,101195.23
2023-10-09T15:37:18.952Z,101199.98
2023-10-09T15:39:57.850Z,101202.98
2023-10-09T15:42:38.919Z,101213.54
2023-10-09T15:45:19.319Z,101224.20
2023-10-09T15:47:54.452Z,101229.77
2023-10-09T15:50:31.211Z,101230.98
2023-10-09T15:53:08.904Z,101235.80
2023-10-09T15:55:46.976Z,101239.77
2023-10-09T15:58:23.783Z,101245.02
2023-10-09T16:01:02.276Z,101242.40
2023-10-09T16:03:36.133Z,101241.02
2023-10-09T16:06:13.702Z,101240.52
2023-10-09T16:08:51.749Z,101248.68
2023-10-09T16:11:28.598Z,101253.74
2023-10-09T16:14:07.781Z,101257.13
2023-10-09T16:16:46.148Z,101258.44
2023-10-09T16:19:22.245Z,101260.78
2023-10-09T16:21:59.781Z,101267.11
2023-10-09T16:24:39.625Z,101264.18
2023-10-09T16:27:25.051Z,101260.45
2023-10-09T16:30:06.889Z,101264.36
2023-10-09T16:32:43.502Z,101266.86
2023-10-09T16:35:19.957Z,101269.05
2023-10-09T16:37:57.737Z,101268.46
2023-10-09T16:40:33.099Z,101269.66
2023-10-09T16:43:15.312Z,101275.63
2023-10-09T16:45:52.718Z,101285.84
2023-10-09T16:48:30.740Z,101288.25
2023-10-09T16:51:11.879Z,101285.76
2023-10-09T16:53:48.181Z,101281.61
2023-10-09T16:56:25.216Z,101281.23
2023-10-09T16:59:09.812Z,101284.71
2023-10-09T17:01:46.806Z,101287.81
2023-10-09T17:04:24.895Z,101292.63
2023-10-09T17:07:00.493Z,101288.63
2023-10-09T17:09:37.361Z,101286.58
2023-10-09T17:12:18.844Z,101291.88
2023-10-09T17:15:03.105Z,101300.95
2023-10-09T17:17:41.262Z,101302.14
2023-10-09T17:20:20.179Z,101303.85
2023-10-09T17:22:55.398Z,101301.77
2023-10-09T17:25:33.054Z,101302.94
2023-10-09T17:28:11.603Z,101307.61
2023-10-09T17:30:51.621Z,101305.16
2023-10-09T17:33:27.097Z,101313.67
2023-10-09T17:36:07.502Z,101314.31
2023-10-09T17:38:43.720Z,101319.88
2023-10-09T17:41:19.433Z,101321.34
2023-10-09T17:43:56.380Z,101319.95
2023-10-09T17:46:32.499Z,101315.00
2023-10-09T17:49:10.842Z,101319.77
2023-10-09T17:51:46.522Z,101321.20
2023-10-09T17:54:25.789Z,101313.11
2023-10-09T17:57:01.640Z,101315.58
2023-10-09T17:59:39.385Z,101318.41
2023-10-09T18:02:20.525Z,101324.05
2023-10-09T18:04:55.837Z,101323.73
2023-10-09T18:07:33.293Z,101327.16
2023-10-09T18:10:12.553Z,101327.59
2023-10-09T18:12:52.344Z,101324.92
2023-10-09T18:15:29.273Z,101331.26
2023-10-09T18:18:11.954Z,101340.92
2023-10-09T18:20:51.122Z,101339.46
2023-10-09T18:23:31.286Z,101340.00
2023-10-09T18:26:08.939Z,101344.89
2023-10-09T18:28:50.609Z,101341.92
2023-10-09T18:31:44.488Z,101340.34
2023-10-09T18:34:23.684Z,101335.50
2023-10-09T18:37:01.094Z,101341.58
2023-10-09T18:39:40.853Z,101344.52
2023-10-09T18:42:21.299Z,101342.19
2023-10-09T18:44:56.412Z,101340.36
2023-10-09T18:47:39.080Z,101338.53
2023-10-09T18:50:18.542Z,101342.05
2023-10-09T18:52:54.298Z,101342.26
2023-10-09T18:55:31.262Z,101342.73
2023-10-09T18:58:07.281Z,101343.84
2023-10-09T19:00:51.730Z,101345.04
2023-10-09T19:03:33.437Z,101343.70
2023-10-09T19:06:12.013Z,101347.23
2023-10-09T19:08:51.944Z,101349.24
2023-10-09T19:11:29.192Z,101350.58
2023-10-09T19:14:10.296Z,101351.33
2023-10-09T19:16:48.548Z,101353.59
2023-10-09T19:19:26.732Z,101351.83
2023-10-09T19:22:09.558Z,101356.77
2023-10-09T19:24:49.454Z,101357.07
2023-10-09T19:27:28.086Z,101357.61
2023-10-09T19:30:10.846Z,101361.96
2023-10-09T19:32:48.405Z,101361.25
2023-10-09T19:35:30.140Z,101360.34
2023-10-09T19:38:05.123Z,101357.64
2023-10-09T19:40:41.746Z,101362.75
2023-10-09T19:43:17.445Z,101370.70
2023-10-09T19:45:54.991Z,101368.63
2023-10-09T19:48:34.929Z,101373.20
2023-10-09T19:51:14.306Z,101376.91
2023-10-09T19:53:54.082Z,101373.14
2023-10-09T19:56:29.920Z,101373.59
2023-10-09T19:59:04.979Z,101373.23
2023-10-09T20:01:42.740Z,101371.36
2023-10-09T20:04:19.182Z,101369.86
2023-10-09T20:06:56.134Z,101374.52
2023-10-09T20:09:32.637Z,101378.95
2023-10-09T20:12:10.876Z,101380.17
2023-10-09T20:14:46.361Z,101382.33
2023-10-09T20:17:41.822Z,101379.02
2023-10-09T20:20:17.648Z,101388.42
2023-10-09T20:22:56.981Z,101390.40
2023-10-09T20:25:34.097Z,101387.52
2023-10-09T20:28:13.022Z,101384.02
2023-10-09T20:30:50.334Z,101382.92
2023-10-09T20:33:29.820Z,101384.63
2023-10-09T20:36:15.018Z,101387.11
2023-10-09T20:38:59.062Z,101389.68
2023-10-09T20:41:33.940Z,101398.65
2023-10-09T20:44:11.079Z,101401.27
2023-10-09T20:46:50.600Z,101399.27
2023-10-09T20:49:26.504Z,101402.39
2023-10-09T20:52:02.324Z,101404.15
2023-10-09T20:54:38.945Z,101405.61
2023-10-09T20:57:15.834Z,101403.02
2023-10-09T20:59:52.483Z,101406.34
2023-10-09T21:02:29.239Z,101407.15
2023-10-09T21:05:04.363Z,101404.42
2023-10-09T21:07:40.743Z,101403.77
2023-10-09T21:10:19.941Z,101402.73
2023-10-09T21:13:00.643Z,101403.38
2023-10-09T21:15:37.382Z,101405.69
2023-10-09T21:18:15.562Z,101403.13
2023-10-09T21:20:53.205Z,101407.16
2023-10-09T21:23:33.612Z,101408.86
2023-10-09T21:26:19.922Z,101412.61
2023-10-09T21:29:00.849Z,101410.50
2023-10-09T21:31:40.804Z,101409.52
2023-10-09T21:34:16.358Z,101405.87
2023-10-09T21:36:55.250Z,101409.88
2023-10-09T21:39:34.252Z,101409.52
2023-10-09T21:42:11.249Z,101412.32
2023-10-09T21:44:49.588Z,101413.30
2023-10-09T21:47:27.243Z,101414.77
2023-10-09T21:50:05.916Z,101413.91
2023-10-09T21:52:45.520Z,101415.95
2023-10-09T21:55:24.296Z,101414.52
2023-10-09T21:58:02.943Z,101414.62
2023-10-09T22:00:39.587Z,101421.24
2023-10-09T22:03:17.112Z,101424.63
2023-10-09T22:05:53.785Z,101424.17
2023-10-09T22:08:29.678Z,101426.60
2023-10-09T22:11:09.232Z,101429.08
2023-10-09T22:13:46.998Z,101432.86
2023-10-09T22:16:26.753Z,101433.50
2023-10-09T22:19:14.090Z,101432.55
2023-10-09T22:21:57.831Z,101429.80
2023-10-09T22:24:36.926Z,101430.77
2023-10-09T22:27:25.426Z,101431.38
2023-10-09T22:30:06.878Z,101433.58
2023-10-09T22:32:44.380Z,101434.44
2023-10-09T22:35:24.276Z,101435.91
2023-10-09T22:38:01.057Z,101434.82
2023-10-09T22:40:39.835Z,101429.00
2023-10-09T22:43:16.329Z,101433.52
2023-10-09T22:45:54.108Z,101436.98
2023-10-09T22:48:29.863Z,101441.05
2023-10-09T22:51:11.998Z,101439.92
2023-10-09T22:53:50.037Z,101440.98
2023-10-09T22:56:28.819Z,101438.87
2023-10-09T22:59:22.240Z,101440.41
2023-10-09T23:02:01.416Z,101443.48
2023-10-09T23:04:53.984Z,101439.98
2023-10-09T23:07:32.870Z,101441.25
2023-10-09T23:10:17.852Z,101442.25
2023-10-09T23:12:54.356Z,101446.43
2023-10-09T23:15:34.613Z,101447.81
2023-10-09T23:18:32.510Z,101447.66
2023-10-09T23:21:25.280Z,101455.75
2023-10-09T23:24:10.128Z,101458.18
2023-10-09T23:26:56.760Z,101454.29
2023-10-09T23:29:35.079Z,101456.73
2023-10-09T23:32:34.068Z,101460.44
2023-10-09T23:35:11.539Z,101461.79
2023-10-09T23:38:07.762Z,101467.36
2023-10-09T23:40:47.085Z,101471.42
2023-10-09T23:43:29.291Z,101470.95
2023-10-09T23:46:03.620Z,101473.36
2023-10-09T23:48:39.823Z,101474.98
2023-10-09T23:51:20.433Z,101472.55
2023-10-09T23:54:02.933Z,101474.23
2023-10-09T23:56:57.516Z,101481.66
2023-10-09T23:59:41.487Z,101481.23
